Archival Weather

Salzburg

Salzburg, Austria (LOWS)

Report from: Thursday, September 21, 2023 5:20 AM CEST
Current time: Sunday, July 14, 2024 11:46 AM CEST

Current weather – Weather history – Daily summaries
Weather forecast

Temperature15.0°C (59.0°F)
Dew point12.0°C (53.6°F)
Winds 7 kts (3.6 m/s, 8.1 mph) South-Southeast (160°)
Visibility6.2 mi. (10 km)
Clouds Few clouds 10,000 ft. (3,048 m)
Altimeter29.77 in.Hg (1008 mB)
Relative humidity82 %
Density altitude374 ft. (114 m)
Remarks Fully automated report
Flight conditions Visual Meteorological Conditions
Raw dataLOWS 210320Z AUTO 16007KT 9999 FEW100 15/12 Q1008
An error has occurred. This application may no longer respond until reloaded. Reload 🗙